Station: EHBK - 24/04/2019 08:25Z (il y a 28 minutes)
EHBK 240825Z AUTO 19013KT 150V220 9999 NSC 20/09 Q0999 NOSIG
Vent du 190º - 13 kt (vent de direction variable de 150º à 220º)
Visibilité > 10 km
Pas de nuages significatifs
Température: +20ºC - Point de rosée: +09ºC - QNH: 999 hPa
Pas de changement significatif prévu dans les 2 heures qui suivent l'observation